sensor_id;sensor_type;location;lat;lon;timestamp;temperature;humidity
40253;DHT22;25972;51.854;4.534;2023-02-28T00:00:30;2.00;99.90
40253;DHT22;25972;51.854;4.534;2023-02-28T00:02:56;2.00;99.90
40253;DHT22;25972;51.854;4.534;2023-02-28T00:05:25;2.00;99.90
40253;DHT22;25972;51.854;4.534;2023-02-28T00:07:51;2.00;99.90
40253;DHT22;25972;51.854;4.534;2023-02-28T00:10:26;2.00;99.90
40253;DHT22;25972;51.854;4.534;2023-02-28T00:13:04;1.90;99.90
40253;DHT22;25972;51.854;4.534;2023-02-28T00:15:43;1.90;99.90
40253;DHT22;25972;51.854;4.534;2023-02-28T00:18:15;1.90;99.90
40253;DHT22;25972;51.854;4.534;2023-02-28T00:20:41;1.80;99.90
40253;DHT22;25972;51.854;4.534;2023-02-28T00:23:14;1.80;99.90
40253;DHT22;25972;51.854;4.534;2023-02-28T00:25:50;1.80;99.90
40253;DHT22;25972;51.854;4.534;2023-02-28T00:28:16;1.80;99.90
40253;DHT22;25972;51.854;4.534;2023-02-28T00:30:42;1.70;99.90
40253;DHT22;25972;51.854;4.534;2023-02-28T00:33:08;1.80;99.90
40253;DHT22;25972;51.854;4.534;2023-02-28T00:35:33;1.80;99.90
40253;DHT22;25972;51.854;4.534;2023-02-28T00:37:59;1.80;99.90
40253;DHT22;25972;51.854;4.534;2023-02-28T00:40:26;1.80;99.90
40253;DHT22;25972;51.854;4.534;2023-02-28T00:42:53;1.90;99.90
40253;DHT22;25972;51.854;4.534;2023-02-28T00:45:19;2.00;99.90
40253;DHT22;25972;51.854;4.534;2023-02-28T00:47:45;2.00;99.90
40253;DHT22;25972;51.854;4.534;2023-02-28T00:50:16;2.00;99.90
40253;DHT22;25972;51.854;4.534;2023-02-28T00:52:43;2.10;99.90
40253;DHT22;25972;51.854;4.534;2023-02-28T00:55:10;2.10;99.90
40253;DHT22;25972;51.854;4.534;2023-02-28T00:57:39;2.10;99.90
40253;DHT22;25972;51.854;4.534;2023-02-28T01:00:06;2.20;99.90
40253;DHT22;25972;51.854;4.534;2023-02-28T01:02:32;2.20;99.90
40253;DHT22;25972;51.854;4.534;2023-02-28T01:04:58;2.20;99.90
40253;DHT22;25972;51.854;4.534;2023-02-28T01:07:24;2.20;99.90
40253;DHT22;25972;51.854;4.534;2023-02-28T01:09:50;2.30;99.90
40253;DHT22;25972;51.854;4.534;2023-02-28T01:12:16;2.40;99.90
40253;DHT22;25972;51.854;4.534;2023-02-28T01:14:42;2.40;99.90
40253;DHT22;25972;51.854;4.534;2023-02-28T01:17:08;2.50;99.90
40253;DHT22;25972;51.854;4.534;2023-02-28T01:19:35;2.50;99.90
40253;DHT22;25972;51.854;4.534;2023-02-28T01:22:05;2.50;99.90
40253;DHT22;25972;51.854;4.534;2023-02-28T01:24:34;2.50;99.90
40253;DHT22;25972;51.854;4.534;2023-02-28T01:27:00;2.60;99.90
40253;DHT22;25972;51.854;4.534;2023-02-28T01:29:26;2.60;99.90
40253;DHT22;25972;51.854;4.534;2023-02-28T01:31:52;2.60;99.90
40253;DHT22;25972;51.854;4.534;2023-02-28T01:34:19;2.70;99.90
40253;DHT22;25972;51.854;4.534;2023-02-28T01:36:45;2.70;99.90
40253;DHT22;25972;51.854;4.534;2023-02-28T01:39:11;2.70;99.90
40253;DHT22;25972;51.854;4.534;2023-02-28T01:41:38;2.70;99.90
40253;DHT22;25972;51.854;4.534;2023-02-28T01:47:11;2.80;99.90
40253;DHT22;25972;51.854;4.534;2023-02-28T01:49:38;2.80;99.90
40253;DHT22;25972;51.854;4.534;2023-02-28T01:52:04;2.80;99.90
40253;DHT22;25972;51.854;4.534;2023-02-28T01:54:31;2.90;99.90
40253;DHT22;25972;51.854;4.534;2023-02-28T01:57:08;2.90;99.90
40253;DHT22;25972;51.854;4.534;2023-02-28T01:59:40;2.90;99.90
40253;DHT22;25972;51.854;4.534;2023-02-28T02:02:15;2.90;99.90
40253;DHT22;25972;51.854;4.534;2023-02-28T02:04:50;3.00;99.90
40253;DHT22;25972;51.854;4.534;2023-02-28T02:07:18;3.00;99.90
40253;DHT22;25972;51.854;4.534;2023-02-28T02:09:44;3.00;99.90
40253;DHT22;25972;51.854;4.534;2023-02-28T02:18:30;3.10;99.90
40253;DHT22;25972;51.854;4.534;2023-02-28T02:29:48;3.20;99.90
40253;DHT22;25972;51.854;4.534;2023-02-28T02:35:14;3.20;99.90
40253;DHT22;25972;51.854;4.534;2023-02-28T02:40:22;3.30;99.90
40253;DHT22;25972;51.854;4.534;2023-02-28T02:42:55;3.20;99.90
40253;DHT22;25972;51.854;4.534;2023-02-28T02:45:53;3.20;99.90
40253;DHT22;25972;51.854;4.534;2023-02-28T02:48:25;3.30;99.90
40253;DHT22;25972;51.854;4.534;2023-02-28T02:50:58;3.30;99.90
40253;DHT22;25972;51.854;4.534;2023-02-28T02:54:13;3.30;99.90
40253;DHT22;25972;51.854;4.534;2023-02-28T02:56:46;3.30;99.90
40253;DHT22;25972;51.854;4.534;2023-02-28T02:59:15;3.30;99.90
40253;DHT22;25972;51.854;4.534;2023-02-28T03:01:57;3.30;99.90
40253;DHT22;25972;51.854;4.534;2023-02-28T03:04:28;3.30;99.90
40253;DHT22;25972;51.854;4.534;2023-02-28T03:06:56;3.30;99.90
40253;DHT22;25972;51.854;4.534;2023-02-28T03:09:22;3.30;99.90
40253;DHT22;25972;51.854;4.534;2023-02-28T03:11:49;3.30;99.90
40253;DHT22;25972;51.854;4.534;2023-02-28T03:14:54;3.30;99.90
40253;DHT22;25972;51.854;4.534;2023-02-28T03:17:35;3.30;99.90
40253;DHT22;25972;51.854;4.534;2023-02-28T03:22:59;3.30;99.90
40253;DHT22;25972;51.854;4.534;2023-02-28T03:25:36;3.30;99.90
40253;DHT22;25972;51.854;4.534;2023-02-28T03:28:14;3.30;99.90
40253;DHT22;25972;51.854;4.534;2023-02-28T03:30:49;3.40;99.90
40253;DHT22;25972;51.854;4.534;2023-02-28T03:33:33;3.30;99.90
40253;DHT22;25972;51.854;4.534;2023-02-28T03:36:12;3.40;99.90
40253;DHT22;25972;51.854;4.534;2023-02-28T03:38:45;3.40;99.90
40253;DHT22;25972;51.854;4.534;2023-02-28T03:41:22;3.40;99.90
40253;DHT22;25972;51.854;4.534;2023-02-28T03:43:56;3.40;99.90
40253;DHT22;25972;51.854;4.534;2023-02-28T03:46:26;3.40;99.90
40253;DHT22;25972;51.854;4.534;2023-02-28T03:49:35;3.50;99.90
40253;DHT22;25972;51.854;4.534;2023-02-28T03:52:06;3.40;99.90
40253;DHT22;25972;51.854;4.534;2023-02-28T03:54:37;3.40;99.90
40253;DHT22;25972;51.854;4.534;2023-02-28T03:57:12;3.50;99.90
40253;DHT22;25972;51.854;4.534;2023-02-28T03:59:47;3.40;99.90
40253;DHT22;25972;51.854;4.534;2023-02-28T04:02:15;3.50;99.90
40253;DHT22;25972;51.854;4.534;2023-02-28T04:04:40;3.50;99.90
40253;DHT22;25972;51.854;4.534;2023-02-28T04:07:11;3.50;99.90
40253;DHT22;25972;51.854;4.534;2023-02-28T04:09:37;3.50;99.90
40253;DHT22;25972;51.854;4.534;2023-02-28T04:12:03;3.50;99.90
40253;DHT22;25972;51.854;4.534;2023-02-28T04:14:29;3.50;99.90
40253;DHT22;25972;51.854;4.534;2023-02-28T04:16:55;3.50;99.90
40253;DHT22;25972;51.854;4.534;2023-02-28T04:19:21;3.50;99.90
40253;DHT22;25972;51.854;4.534;2023-02-28T04:21:52;3.40;99.90
40253;DHT22;25972;51.854;4.534;2023-02-28T04:24:21;3.40;99.90
40253;DHT22;25972;51.854;4.534;2023-02-28T04:26:49;3.40;99.90
40253;DHT22;25972;51.854;4.534;2023-02-28T04:29:28;3.50;99.90
40253;DHT22;25972;51.854;4.534;2023-02-28T04:31:55;3.40;99.90
40253;DHT22;25972;51.854;4.534;2023-02-28T04:34:29;3.40;99.90
40253;DHT22;25972;51.854;4.534;2023-02-28T04:36:56;3.40;99.90
40253;DHT22;25972;51.854;4.534;2023-02-28T04:39:23;3.40;99.90
40253;DHT22;25972;51.854;4.534;2023-02-28T04:41:50;3.40;99.90
40253;DHT22;25972;51.854;4.534;2023-02-28T04:44:16;3.40;99.90
40253;DHT22;25972;51.854;4.534;2023-02-28T04:46:43;3.40;99.90
40253;DHT22;25972;51.854;4.534;2023-02-28T04:49:12;3.40;99.90
40253;DHT22;25972;51.854;4.534;2023-02-28T04:51:38;3.40;99.90
40253;DHT22;25972;51.854;4.534;2023-02-28T04:54:04;3.40;99.90
40253;DHT22;25972;51.854;4.534;2023-02-28T04:56:30;3.40;99.90
40253;DHT22;25972;51.854;4.534;2023-02-28T04:58:56;3.40;99.90
40253;DHT22;25972;51.854;4.534;2023-02-28T05:01:28;3.40;99.90
40253;DHT22;25972;51.854;4.534;2023-02-28T05:03:55;3.50;99.90
40253;DHT22;25972;51.854;4.534;2023-02-28T05:06:23;3.40;99.90
40253;DHT22;25972;51.854;4.534;2023-02-28T05:08:51;3.40;99.90
40253;DHT22;25972;51.854;4.534;2023-02-28T05:13:47;3.40;99.90
40253;DHT22;25972;51.854;4.534;2023-02-28T05:16:14;3.40;99.90
40253;DHT22;25972;51.854;4.534;2023-02-28T05:18:40;3.40;99.90
40253;DHT22;25972;51.854;4.534;2023-02-28T05:23:49;3.40;99.90
40253;DHT22;25972;51.854;4.534;2023-02-28T05:26:15;3.40;99.90
40253;DHT22;25972;51.854;4.534;2023-02-28T05:28:41;3.40;99.90
40253;DHT22;25972;51.854;4.534;2023-02-28T05:31:10;3.40;99.90
40253;DHT22;25972;51.854;4.534;2023-02-28T05:33:36;3.40;99.90
40253;DHT22;25972;51.854;4.534;2023-02-28T05:36:02;3.40;99.90
40253;DHT22;25972;51.854;4.534;2023-02-28T05:38:28;3.40;99.90
40253;DHT22;25972;51.854;4.534;2023-02-28T05:40:54;3.40;99.90
40253;DHT22;25972;51.854;4.534;2023-02-28T05:43:26;3.40;99.90
40253;DHT22;25972;51.854;4.534;2023-02-28T05:46:13;3.40;99.90
40253;DHT22;25972;51.854;4.534;2023-02-28T05:48:48;3.40;99.90
40253;DHT22;25972;51.854;4.534;2023-02-28T05:51:27;3.40;99.90
40253;DHT22;25972;51.854;4.534;2023-02-28T05:54:16;3.30;99.90
40253;DHT22;25972;51.854;4.534;2023-02-28T05:56:57;3.20;99.90
40253;DHT22;25972;51.854;4.534;2023-02-28T05:59:27;3.20;99.90
40253;DHT22;25972;51.854;4.534;2023-02-28T06:02:24;3.20;99.90
40253;DHT22;25972;51.854;4.534;2023-02-28T06:05:09;3.20;99.90
40253;DHT22;25972;51.854;4.534;2023-02-28T06:08:06;3.10;99.90
40253;DHT22;25972;51.854;4.534;2023-02-28T06:10:46;3.10;99.90
40253;DHT22;25972;51.854;4.534;2023-02-28T06:13:16;3.10;99.90
40253;DHT22;25972;51.854;4.534;2023-02-28T06:15:50;3.00;99.90
40253;DHT22;25972;51.854;4.534;2023-02-28T06:18:15;3.00;99.90
40253;DHT22;25972;51.854;4.534;2023-02-28T06:20:41;3.10;99.90
40253;DHT22;25972;51.854;4.534;2023-02-28T06:23:13;3.00;99.90
40253;DHT22;25972;51.854;4.534;2023-02-28T06:25:44;2.90;99.90
40253;DHT22;25972;51.854;4.534;2023-02-28T06:28:34;2.90;99.90
40253;DHT22;25972;51.854;4.534;2023-02-28T06:31:30;2.90;99.90
40253;DHT22;25972;51.854;4.534;2023-02-28T06:33:58;2.90;99.90
40253;DHT22;25972;51.854;4.534;2023-02-28T06:36:24;2.90;99.90
40253;DHT22;25972;51.854;4.534;2023-02-28T06:38:50;2.80;99.90
40253;DHT22;25972;51.854;4.534;2023-02-28T06:41:22;2.80;99.90
40253;DHT22;25972;51.854;4.534;2023-02-28T06:44:11;2.70;99.90
40253;DHT22;25972;51.854;4.534;2023-02-28T06:46:51;2.60;99.90
40253;DHT22;25972;51.854;4.534;2023-02-28T06:49:50;2.60;99.90
40253;DHT22;25972;51.854;4.534;2023-02-28T06:52:17;2.50;99.90
40253;DHT22;25972;51.854;4.534;2023-02-28T06:54:42;2.50;99.90
40253;DHT22;25972;51.854;4.534;2023-02-28T06:57:08;2.50;99.90
40253;DHT22;25972;51.854;4.534;2023-02-28T06:59:34;2.40;99.90
40253;DHT22;25972;51.854;4.534;2023-02-28T07:02:01;2.30;99.90
40253;DHT22;25972;51.854;4.534;2023-02-28T07:04:28;2.20;99.90
40253;DHT22;25972;51.854;4.534;2023-02-28T07:06:55;2.20;99.90
40253;DHT22;25972;51.854;4.534;2023-02-28T07:09:22;2.20;99.90
40253;DHT22;25972;51.854;4.534;2023-02-28T07:11:48;2.20;99.90
40253;DHT22;25972;51.854;4.534;2023-02-28T07:14:14;2.10;99.90
40253;DHT22;25972;51.854;4.534;2023-02-28T07:16:40;2.10;99.90
40253;DHT22;25972;51.854;4.534;2023-02-28T07:19:06;2.00;99.90
40253;DHT22;25972;51.854;4.534;2023-02-28T07:21:32;2.00;99.90
40253;DHT22;25972;51.854;4.534;2023-02-28T07:23:57;2.00;99.90
40253;DHT22;25972;51.854;4.534;2023-02-28T07:26:23;1.90;99.90
40253;DHT22;25972;51.854;4.534;2023-02-28T07:28:49;1.90;99.90
40253;DHT22;25972;51.854;4.534;2023-02-28T07:31:16;1.90;99.90
40253;DHT22;25972;51.854;4.534;2023-02-28T07:33:43;1.80;99.90
40253;DHT22;25972;51.854;4.534;2023-02-28T07:36:11;1.80;99.90
40253;DHT22;25972;51.854;4.534;2023-02-28T07:38:45;1.90;99.90
40253;DHT22;25972;51.854;4.534;2023-02-28T07:41:12;1.80;99.90
40253;DHT22;25972;51.854;4.534;2023-02-28T07:43:38;1.80;99.90
40253;DHT22;25972;51.854;4.534;2023-02-28T07:46:06;1.90;99.90
40253;DHT22;25972;51.854;4.534;2023-02-28T07:48:32;1.90;99.90
40253;DHT22;25972;51.854;4.534;2023-02-28T07:50:58;1.90;99.90
40253;DHT22;25972;51.854;4.534;2023-02-28T07:53:25;1.90;99.90
40253;DHT22;25972;51.854;4.534;2023-02-28T07:56:01;1.90;99.90
40253;DHT22;25972;51.854;4.534;2023-02-28T07:58:28;1.90;99.90
40253;DHT22;25972;51.854;4.534;2023-02-28T08:01:21;1.90;99.90
40253;DHT22;25972;51.854;4.534;2023-02-28T08:03:47;2.00;99.90
40253;DHT22;25972;51.854;4.534;2023-02-28T08:06:20;2.00;99.90
40253;DHT22;25972;51.854;4.534;2023-02-28T08:08:46;2.00;99.90
40253;DHT22;25972;51.854;4.534;2023-02-28T08:11:12;2.10;99.90
40253;DHT22;25972;51.854;4.534;2023-02-28T08:13:38;2.10;99.90
40253;DHT22;25972;51.854;4.534;2023-02-28T08:16:04;2.10;99.90
40253;DHT22;25972;51.854;4.534;2023-02-28T08:18:30;2.20;99.90
40253;DHT22;25972;51.854;4.534;2023-02-28T08:20:55;2.20;99.90
40253;DHT22;25972;51.854;4.534;2023-02-28T08:23:22;2.20;99.90
40253;DHT22;25972;51.854;4.534;2023-02-28T08:25:55;2.30;99.90
40253;DHT22;25972;51.854;4.534;2023-02-28T08:28:22;2.30;99.90
40253;DHT22;25972;51.854;4.534;2023-02-28T08:30:47;2.30;99.90
40253;DHT22;25972;51.854;4.534;2023-02-28T08:33:14;2.30;99.90
40253;DHT22;25972;51.854;4.534;2023-02-28T08:35:40;2.40;99.90
40253;DHT22;25972;51.854;4.534;2023-02-28T08:38:06;2.40;99.90
40253;DHT22;25972;51.854;4.534;2023-02-28T08:40:31;2.50;99.90
40253;DHT22;25972;51.854;4.534;2023-02-28T08:42:57;2.50;99.90
40253;DHT22;25972;51.854;4.534;2023-02-28T08:45:24;2.50;99.90
40253;DHT22;25972;51.854;4.534;2023-02-28T08:47:50;2.60;99.90
40253;DHT22;25972;51.854;4.534;2023-02-28T08:50:18;2.60;99.90
40253;DHT22;25972;51.854;4.534;2023-02-28T08:52:44;2.70;99.90
40253;DHT22;25972;51.854;4.534;2023-02-28T08:55:10;2.80;99.90
40253;DHT22;25972;51.854;4.534;2023-02-28T08:57:35;2.70;99.90
40253;DHT22;25972;51.854;4.534;2023-02-28T09:00:02;2.80;99.90
40253;DHT22;25972;51.854;4.534;2023-02-28T09:02:30;2.90;99.90
40253;DHT22;25972;51.854;4.534;2023-02-28T09:05:00;2.90;99.90
40253;DHT22;25972;51.854;4.534;2023-02-28T09:07:25;2.90;99.90
40253;DHT22;25972;51.854;4.534;2023-02-28T09:09:51;3.00;99.90
40253;DHT22;25972;51.854;4.534;2023-02-28T09:12:27;3.00;99.90
40253;DHT22;25972;51.854;4.534;2023-02-28T09:14:57;3.00;99.90
40253;DHT22;25972;51.854;4.534;2023-02-28T09:17:22;3.10;99.90
40253;DHT22;25972;51.854;4.534;2023-02-28T09:19:49;3.10;99.90
40253;DHT22;25972;51.854;4.534;2023-02-28T09:22:15;3.20;99.90
40253;DHT22;25972;51.854;4.534;2023-02-28T09:24:41;3.20;99.90
40253;DHT22;25972;51.854;4.534;2023-02-28T09:27:07;3.20;99.90
40253;DHT22;25972;51.854;4.534;2023-02-28T09:29:33;3.20;99.90
40253;DHT22;25972;51.854;4.534;2023-02-28T09:31:59;3.30;99.90
40253;DHT22;25972;51.854;4.534;2023-02-28T09:34:26;3.30;99.90
40253;DHT22;25972;51.854;4.534;2023-02-28T09:36:52;3.40;99.90
40253;DHT22;25972;51.854;4.534;2023-02-28T09:39:21;3.40;99.90
40253;DHT22;25972;51.854;4.534;2023-02-28T09:41:50;3.50;99.90
40253;DHT22;25972;51.854;4.534;2023-02-28T09:44:23;3.50;99.90
40253;DHT22;25972;51.854;4.534;2023-02-28T09:46:54;3.50;99.90
40253;DHT22;25972;51.854;4.534;2023-02-28T09:49:27;3.50;99.90
40253;DHT22;25972;51.854;4.534;2023-02-28T09:54:30;3.60;99.90
40253;DHT22;25972;51.854;4.534;2023-02-28T09:57:07;3.50;99.90
40253;DHT22;25972;51.854;4.534;2023-02-28T10:03:23;3.40;99.90
40253;DHT22;25972;51.854;4.534;2023-02-28T10:06:06;3.40;99.90
40253;DHT22;25972;51.854;4.534;2023-02-28T10:11:18;3.50;99.90
40253;DHT22;25972;51.854;4.534;2023-02-28T10:13:53;3.50;99.90
40253;DHT22;25972;51.854;4.534;2023-02-28T10:16:56;3.60;99.90
40253;DHT22;25972;51.854;4.534;2023-02-28T10:19:26;3.60;99.90
40253;DHT22;25972;51.854;4.534;2023-02-28T10:21:57;3.70;99.90
40253;DHT22;25972;51.854;4.534;2023-02-28T10:27:21;3.80;99.90
40253;DHT22;25972;51.854;4.534;2023-02-28T10:29:55;3.90;99.90
40253;DHT22;25972;51.854;4.534;2023-02-28T10:32:24;4.00;99.90
40253;DHT22;25972;51.854;4.534;2023-02-28T10:37:43;4.40;99.90
40253;DHT22;25972;51.854;4.534;2023-02-28T10:43:05;4.80;99.90
40253;DHT22;25972;51.854;4.534;2023-02-28T10:45:33;4.90;99.90
40253;DHT22;25972;51.854;4.534;2023-02-28T10:48:42;5.10;99.90
40253;DHT22;25972;51.854;4.534;2023-02-28T10:51:14;5.20;99.90
40253;DHT22;25972;51.854;4.534;2023-02-28T10:53:50;5.30;99.90
40253;DHT22;25972;51.854;4.534;2023-02-28T10:56:24;5.20;99.90
40253;DHT22;25972;51.854;4.534;2023-02-28T10:58:54;5.10;99.90
40253;DHT22;25972;51.854;4.534;2023-02-28T11:06:57;5.10;99.90
40253;DHT22;25972;51.854;4.534;2023-02-28T11:11:55;5.10;99.90
40253;DHT22;25972;51.854;4.534;2023-02-28T11:14:33;5.10;99.90
40253;DHT22;25972;51.854;4.534;2023-02-28T11:17:14;5.10;99.90
40253;DHT22;25972;51.854;4.534;2023-02-28T11:19:46;5.20;99.90
40253;DHT22;25972;51.854;4.534;2023-02-28T11:22:37;5.30;99.90
40253;DHT22;25972;51.854;4.534;2023-02-28T11:25:19;5.40;99.90
40253;DHT22;25972;51.854;4.534;2023-02-28T11:27:49;5.40;99.90
40253;DHT22;25972;51.854;4.534;2023-02-28T11:30:36;5.50;99.90
40253;DHT22;25972;51.854;4.534;2023-02-28T11:33:50;5.60;99.90
40253;DHT22;25972;51.854;4.534;2023-02-28T11:36:24;5.70;99.90
40253;DHT22;25972;51.854;4.534;2023-02-28T11:38:55;5.70;99.90
40253;DHT22;25972;51.854;4.534;2023-02-28T11:52:48;6.70;99.90
40253;DHT22;25972;51.854;4.534;2023-02-28T11:55:56;7.10;99.90
40253;DHT22;25972;51.854;4.534;2023-02-28T11:58:28;7.30;99.90
40253;DHT22;25972;51.854;4.534;2023-02-28T12:12:54;7.20;98.80
40253;DHT22;25972;51.854;4.534;2023-02-28T12:18:07;6.80;99.20
40253;DHT22;25972;51.854;4.534;2023-02-28T12:28:48;6.10;97.70
40253;DHT22;25972;51.854;4.534;2023-02-28T12:31:33;6.00;98.20
40253;DHT22;25972;51.854;4.534;2023-02-28T12:34:04;5.90;97.80
40253;DHT22;25972;51.854;4.534;2023-02-28T12:36:33;5.90;98.30
40253;DHT22;25972;51.854;4.534;2023-02-28T12:39:08;6.00;98.60
40253;DHT22;25972;51.854;4.534;2023-02-28T12:41:46;6.00;98.30
40253;DHT22;25972;51.854;4.534;2023-02-28T12:44:19;6.00;97.90
40253;DHT22;25972;51.854;4.534;2023-02-28T12:46:54;6.00;97.60
40253;DHT22;25972;51.854;4.534;2023-02-28T12:52:16;5.90;97.50
40253;DHT22;25972;51.854;4.534;2023-02-28T12:55:01;5.80;97.00
40253;DHT22;25972;51.854;4.534;2023-02-28T12:58:00;5.80;97.70
40253;DHT22;25972;51.854;4.534;2023-02-28T13:00:34;5.80;97.80
40253;DHT22;25972;51.854;4.534;2023-02-28T13:05:55;5.80;97.70
40253;DHT22;25972;51.854;4.534;2023-02-28T13:11:33;5.80;97.80
40253;DHT22;25972;51.854;4.534;2023-02-28T13:14:15;5.90;98.00
40253;DHT22;25972;51.854;4.534;2023-02-28T13:17:12;6.00;97.60
40253;DHT22;25972;51.854;4.534;2023-02-28T13:19:55;5.90;96.60
40253;DHT22;25972;51.854;4.534;2023-02-28T13:24:51;6.00;96.50
40253;DHT22;25972;51.854;4.534;2023-02-28T13:27:32;6.00;95.50
40253;DHT22;25972;51.854;4.534;2023-02-28T13:35:46;6.10;96.30
40253;DHT22;25972;51.854;4.534;2023-02-28T13:38:24;6.00;96.10
40253;DHT22;25972;51.854;4.534;2023-02-28T13:40:50;6.10;96.60
40253;DHT22;25972;51.854;4.534;2023-02-28T13:43:17;6.20;96.60
40253;DHT22;25972;51.854;4.534;2023-02-28T13:46:04;6.10;96.10
40253;DHT22;25972;51.854;4.534;2023-02-28T13:48:31;6.00;95.30
40253;DHT22;25972;51.854;4.534;2023-02-28T13:50:56;6.00;96.20
40253;DHT22;25972;51.854;4.534;2023-02-28T13:53:36;6.10;95.90
40253;DHT22;25972;51.854;4.534;2023-02-28T13:56:23;5.90;95.30
40253;DHT22;25972;51.854;4.534;2023-02-28T13:59:06;6.00;95.80
40253;DHT22;25972;51.854;4.534;2023-02-28T14:01:57;6.00;95.70
40253;DHT22;25972;51.854;4.534;2023-02-28T14:04:46;6.10;96.30
40253;DHT22;25972;51.854;4.534;2023-02-28T14:07:25;6.20;96.20
40253;DHT22;25972;51.854;4.534;2023-02-28T14:10:02;6.10;95.70
40253;DHT22;25972;51.854;4.534;2023-02-28T14:12:57;6.10;95.70
40253;DHT22;25972;51.854;4.534;2023-02-28T14:15:44;6.20;95.50
40253;DHT22;25972;51.854;4.534;2023-02-28T14:18:25;6.20;95.70
40253;DHT22;25972;51.854;4.534;2023-02-28T14:20:58;6.40;96.10
40253;DHT22;25972;51.854;4.534;2023-02-28T14:26:02;6.70;96.30
40253;DHT22;25972;51.854;4.534;2023-02-28T14:31:29;6.90;95.80
40253;DHT22;25972;51.854;4.534;2023-02-28T14:36:46;7.00;95.80
40253;DHT22;25972;51.854;4.534;2023-02-28T14:39:19;7.10;95.60
40253;DHT22;25972;51.854;4.534;2023-02-28T14:41:45;7.00;94.70
40253;DHT22;25972;51.854;4.534;2023-02-28T14:44:25;7.10;95.10
40253;DHT22;25972;51.854;4.534;2023-02-28T14:47:00;7.10;95.40
40253;DHT22;25972;51.854;4.534;2023-02-28T14:49:36;7.10;94.80
40253;DHT22;25972;51.854;4.534;2023-02-28T14:54:38;7.30;95.40
40253;DHT22;25972;51.854;4.534;2023-02-28T14:57:05;7.30;95.20
40253;DHT22;25972;51.854;4.534;2023-02-28T14:59:35;7.40;95.40
40253;DHT22;25972;51.854;4.534;2023-02-28T15:02:23;7.40;95.20
40253;DHT22;25972;51.854;4.534;2023-02-28T15:07:42;7.40;95.30
40253;DHT22;25972;51.854;4.534;2023-02-28T15:10:10;7.40;95.40
40253;DHT22;25972;51.854;4.534;2023-02-28T15:12:37;7.30;94.60
40253;DHT22;25972;51.854;4.534;2023-02-28T15:15:05;7.20;94.80
40253;DHT22;25972;51.854;4.534;2023-02-28T15:17:32;7.30;95.00
40253;DHT22;25972;51.854;4.534;2023-02-28T15:19:58;7.20;94.40
40253;DHT22;25972;51.854;4.534;2023-02-28T15:22:31;7.10;94.60
40253;DHT22;25972;51.854;4.534;2023-02-28T15:24:59;7.10;94.40
40253;DHT22;25972;51.854;4.534;2023-02-28T15:27:28;7.10;94.20
40253;DHT22;25972;51.854;4.534;2023-02-28T15:29:59;7.20;94.90
40253;DHT22;25972;51.854;4.534;2023-02-28T15:32:28;7.10;94.60
40253;DHT22;25972;51.854;4.534;2023-02-28T15:34:55;7.00;94.30
40253;DHT22;25972;51.854;4.534;2023-02-28T15:37:45;7.00;94.30
40253;DHT22;25972;51.854;4.534;2023-02-28T15:40:22;7.00;94.10
40253;DHT22;25972;51.854;4.534;2023-02-28T15:43:28;6.90;94.30
40253;DHT22;25972;51.854;4.534;2023-02-28T15:46:04;6.90;94.20
40253;DHT22;25972;51.854;4.534;2023-02-28T15:48:33;6.90;94.50
40253;DHT22;25972;51.854;4.534;2023-02-28T15:51:12;6.90;94.30
40253;DHT22;25972;51.854;4.534;2023-02-28T15:53:51;6.80;94.20
40253;DHT22;25972;51.854;4.534;2023-02-28T15:56:27;6.80;94.30
40253;DHT22;25972;51.854;4.534;2023-02-28T15:58:55;6.80;94.80
40253;DHT22;25972;51.854;4.534;2023-02-28T16:01:33;6.80;94.60
40253;DHT22;25972;51.854;4.534;2023-02-28T16:04:17;6.80;94.40
40253;DHT22;25972;51.854;4.534;2023-02-28T16:07:05;6.80;94.80
40253;DHT22;25972;51.854;4.534;2023-02-28T16:09:31;6.80;95.00
40253;DHT22;25972;51.854;4.534;2023-02-28T16:12:02;6.70;95.10
40253;DHT22;25972;51.854;4.534;2023-02-28T16:14:29;6.60;95.30
40253;DHT22;25972;51.854;4.534;2023-02-28T16:17:06;6.60;95.10
40253;DHT22;25972;51.854;4.534;2023-02-28T16:19:34;6.40;95.10
40253;DHT22;25972;51.854;4.534;2023-02-28T16:22:00;6.30;94.50
40253;DHT22;25972;51.854;4.534;2023-02-28T16:24:26;6.30;94.70
40253;DHT22;25972;51.854;4.534;2023-02-28T16:26:54;6.20;95.20
40253;DHT22;25972;51.854;4.534;2023-02-28T16:29:32;6.10;94.70
40253;DHT22;25972;51.854;4.534;2023-02-28T16:32:00;6.10;95.20
40253;DHT22;25972;51.854;4.534;2023-02-28T16:34:26;6.00;95.00
40253;DHT22;25972;51.854;4.534;2023-02-28T16:36:53;5.90;95.20
40253;DHT22;25972;51.854;4.534;2023-02-28T16:39:19;5.90;95.40
40253;DHT22;25972;51.854;4.534;2023-02-28T16:41:47;5.80;95.30
40253;DHT22;25972;51.854;4.534;2023-02-28T16:46:51;5.70;95.50
40253;DHT22;25972;51.854;4.534;2023-02-28T16:49:17;5.70;95.80
40253;DHT22;25972;51.854;4.534;2023-02-28T16:51:47;5.60;95.80
40253;DHT22;25972;51.854;4.534;2023-02-28T16:54:13;5.60;95.70
40253;DHT22;25972;51.854;4.534;2023-02-28T16:56:42;5.50;96.10
40253;DHT22;25972;51.854;4.534;2023-02-28T16:59:10;5.50;95.80
40253;DHT22;25972;51.854;4.534;2023-02-28T17:01:36;5.40;96.00
40253;DHT22;25972;51.854;4.534;2023-02-28T17:04:02;5.40;96.20
40253;DHT22;25972;51.854;4.534;2023-02-28T17:06:29;5.30;96.20
40253;DHT22;25972;51.854;4.534;2023-02-28T17:08:55;5.30;96.40
40253;DHT22;25972;51.854;4.534;2023-02-28T17:11:21;5.30;97.00
40253;DHT22;25972;51.854;4.534;2023-02-28T17:13:49;5.30;97.70
40253;DHT22;25972;51.854;4.534;2023-02-28T17:16:29;5.20;98.50
40253;DHT22;25972;51.854;4.534;2023-02-28T17:19:02;5.10;99.90
40253;DHT22;25972;51.854;4.534;2023-02-28T17:21:28;5.10;99.90
40253;DHT22;25972;51.854;4.534;2023-02-28T17:23:54;5.00;99.90
40253;DHT22;25972;51.854;4.534;2023-02-28T17:26:21;5.00;99.90
40253;DHT22;25972;51.854;4.534;2023-02-28T17:28:51;4.90;99.90
40253;DHT22;25972;51.854;4.534;2023-02-28T17:31:17;4.80;99.90
40253;DHT22;25972;51.854;4.534;2023-02-28T17:33:43;4.80;99.90
40253;DHT22;25972;51.854;4.534;2023-02-28T17:36:24;4.80;99.90
40253;DHT22;25972;51.854;4.534;2023-02-28T17:38:52;4.70;99.90
40253;DHT22;25972;51.854;4.534;2023-02-28T17:41:18;4.60;99.90
40253;DHT22;25972;51.854;4.534;2023-02-28T17:43:49;4.60;99.90
40253;DHT22;25972;51.854;4.534;2023-02-28T17:46:37;4.50;99.90
40253;DHT22;25972;51.854;4.534;2023-02-28T17:49:03;4.50;99.90
40253;DHT22;25972;51.854;4.534;2023-02-28T17:51:29;4.40;99.90
40253;DHT22;25972;51.854;4.534;2023-02-28T17:53:55;4.40;99.90
40253;DHT22;25972;51.854;4.534;2023-02-28T17:56:23;4.40;99.90
40253;DHT22;25972;51.854;4.534;2023-02-28T17:58:50;4.30;99.90
40253;DHT22;25972;51.854;4.534;2023-02-28T18:01:17;4.20;99.90
40253;DHT22;25972;51.854;4.534;2023-02-28T18:03:42;4.20;99.90
40253;DHT22;25972;51.854;4.534;2023-02-28T18:06:17;4.10;99.90
40253;DHT22;25972;51.854;4.534;2023-02-28T18:08:44;4.10;99.90
40253;DHT22;25972;51.854;4.534;2023-02-28T18:11:09;4.00;99.90
40253;DHT22;25972;51.854;4.534;2023-02-28T18:13:51;4.00;99.90
40253;DHT22;25972;51.854;4.534;2023-02-28T18:16:18;4.00;99.90
40253;DHT22;25972;51.854;4.534;2023-02-28T18:18:44;4.00;99.90